sensor_id;sensor_type;location;lat;lon;timestamp;pressure;altitude;pressure_sealevel;temperature;humidity
51603;BME280;37954;51.980;5.850;2023-08-08T00:03:49;101077.13;;;14.88;85.07
51603;BME280;37954;51.980;5.850;2023-08-08T00:08:01;101084.06;;;14.84;84.95
51603;BME280;37954;51.980;5.850;2023-08-08T00:12:12;101075.03;;;14.78;85.22
51603;BME280;37954;51.980;5.850;2023-08-08T00:16:24;101078.91;;;14.82;85.59
51603;BME280;37954;51.980;5.850;2023-08-08T00:20:36;101077.38;;;14.86;86.06
51603;BME280;37954;51.980;5.850;2023-08-08T00:24:47;101070.13;;;14.92;86.52
51603;BME280;37954;51.980;5.850;2023-08-08T00:28:59;101059.91;;;14.94;86.74
51603;BME280;37954;51.980;5.850;2023-08-08T00:33:11;101063.03;;;15.03;86.99
51603;BME280;37954;51.980;5.850;2023-08-08T00:37:23;101061.72;;;15.05;87.00
51603;BME280;37954;51.980;5.850;2023-08-08T00:41:34;101060.16;;;15.09;87.33
51603;BME280;37954;51.980;5.850;2023-08-08T00:45:47;101062.38;;;15.12;87.49
51603;BME280;37954;51.980;5.850;2023-08-08T00:49:59;101055.56;;;15.10;87.30
51603;BME280;37954;51.980;5.850;2023-08-08T00:54:11;101060.91;;;15.21;87.63
51603;BME280;37954;51.980;5.850;2023-08-08T00:58:24;101053.09;;;15.25;87.96
51603;BME280;37954;51.980;5.850;2023-08-08T01:02:37;101052.63;;;15.28;87.58
51603;BME280;37954;51.980;5.850;2023-08-08T01:07:02;101063.53;;;15.33;87.52
51603;BME280;37954;51.980;5.850;2023-08-08T01:11:17;101066.31;;;15.38;88.01
51603;BME280;37954;51.980;5.850;2023-08-08T01:15:29;101063.38;;;15.40;87.88
51603;BME280;37954;51.980;5.850;2023-08-08T01:19:47;101064.19;;;15.40;88.20
51603;BME280;37954;51.980;5.850;2023-08-08T01:24:22;101060.16;;;15.43;88.72
51603;BME280;37954;51.980;5.850;2023-08-08T01:28:35;101043.34;;;15.41;89.07
51603;BME280;37954;51.980;5.850;2023-08-08T01:32:47;101048.25;;;15.44;89.53
51603;BME280;37954;51.980;5.850;2023-08-08T01:37:20;101055.06;;;15.46;89.13
51603;BME280;37954;51.980;5.850;2023-08-08T01:41:38;101037.63;;;15.37;89.24
51603;BME280;37954;51.980;5.850;2023-08-08T01:45:52;101022.50;;;15.24;89.16
51603;BME280;37954;51.980;5.850;2023-08-08T01:50:05;101041.53;;;15.29;88.85
51603;BME280;37954;51.980;5.850;2023-08-08T01:54:18;101043.03;;;15.20;88.92
51603;BME280;37954;51.980;5.850;2023-08-08T01:58:30;101043.19;;;15.14;88.63
51603;BME280;37954;51.980;5.850;2023-08-08T02:02:42;101031.69;;;15.07;89.22
51603;BME280;37954;51.980;5.850;2023-08-08T02:06:55;101025.97;;;15.03;89.53
51603;BME280;37954;51.980;5.850;2023-08-08T02:11:08;101030.91;;;15.06;90.13
51603;BME280;37954;51.980;5.850;2023-08-08T02:15:20;101019.56;;;15.09;90.69
51603;BME280;37954;51.980;5.850;2023-08-08T02:19:32;101015.31;;;15.13;90.85
51603;BME280;37954;51.980;5.850;2023-08-08T02:23:43;101015.06;;;15.15;91.01
51603;BME280;37954;51.980;5.850;2023-08-08T02:27:55;100999.06;;;15.13;91.11
51603;BME280;37954;51.980;5.850;2023-08-08T02:32:07;101008.75;;;15.09;90.81
51603;BME280;37954;51.980;5.850;2023-08-08T02:36:18;101003.44;;;14.97;90.94
51603;BME280;37954;51.980;5.850;2023-08-08T02:40:30;101004.00;;;14.83;90.82
51603;BME280;37954;51.980;5.850;2023-08-08T02:44:42;101004.16;;;14.76;90.60
51603;BME280;37954;51.980;5.850;2023-08-08T02:48:54;101007.91;;;14.75;90.96
51603;BME280;37954;51.980;5.850;2023-08-08T02:53:06;101001.03;;;14.68;90.79
51603;BME280;37954;51.980;5.850;2023-08-08T02:57:23;100996.00;;;14.59;91.17
51603;BME280;37954;51.980;5.850;2023-08-08T03:01:38;100988.88;;;14.53;91.39
51603;BME280;37954;51.980;5.850;2023-08-08T03:05:58;100996.41;;;14.51;91.39
51603;BME280;37954;51.980;5.850;2023-08-08T03:10:12;100987.63;;;14.44;91.54
51603;BME280;37954;51.980;5.850;2023-08-08T03:14:25;100996.94;;;14.37;91.82
51603;BME280;37954;51.980;5.850;2023-08-08T03:18:37;101000.09;;;14.45;92.09
51603;BME280;37954;51.980;5.850;2023-08-08T03:22:48;101001.81;;;14.51;92.50
51603;BME280;37954;51.980;5.850;2023-08-08T03:27:00;100995.78;;;14.61;92.79
51603;BME280;37954;51.980;5.850;2023-08-08T03:31:12;100989.97;;;14.69;93.40
51603;BME280;37954;51.980;5.850;2023-08-08T03:35:26;100988.91;;;14.70;93.64
51603;BME280;37954;51.980;5.850;2023-08-08T03:39:38;100978.66;;;14.72;93.79
51603;BME280;37954;51.980;5.850;2023-08-08T03:43:50;100984.97;;;14.78;94.50
51603;BME280;37954;51.980;5.850;2023-08-08T03:48:03;100974.72;;;14.80;94.91
51603;BME280;37954;51.980;5.850;2023-08-08T03:52:15;100978.00;;;14.82;95.28
51603;BME280;37954;51.980;5.850;2023-08-08T03:56:27;100970.72;;;14.82;94.88
51603;BME280;37954;51.980;5.850;2023-08-08T04:00:39;100969.91;;;14.82;95.08
51603;BME280;37954;51.980;5.850;2023-08-08T04:04:57;100982.59;;;14.81;95.27
51603;BME280;37954;51.980;5.850;2023-08-08T04:09:09;100956.94;;;14.67;95.29
51603;BME280;37954;51.980;5.850;2023-08-08T04:13:20;100961.44;;;14.78;95.68
51603;BME280;37954;51.980;5.850;2023-08-08T04:17:32;100970.56;;;14.89;95.96
51603;BME280;37954;51.980;5.850;2023-08-08T04:21:44;100961.06;;;14.86;96.63
51603;BME280;37954;51.980;5.850;2023-08-08T04:25:55;100962.94;;;14.86;96.00
51603;BME280;37954;51.980;5.850;2023-08-08T04:30:07;100961.31;;;14.85;96.05
51603;BME280;37954;51.980;5.850;2023-08-08T04:34:19;100955.78;;;14.80;96.18
51603;BME280;37954;51.980;5.850;2023-08-08T04:38:31;100960.72;;;14.83;96.23
51603;BME280;37954;51.980;5.850;2023-08-08T04:42:43;100965.88;;;14.84;96.11
51603;BME280;37954;51.980;5.850;2023-08-08T04:46:55;100973.81;;;14.91;96.59
51603;BME280;37954;51.980;5.850;2023-08-08T04:51:08;100974.16;;;14.94;96.64
51603;BME280;37954;51.980;5.850;2023-08-08T04:55:19;100966.13;;;15.00;96.90
51603;BME280;37954;51.980;5.850;2023-08-08T04:59:31;100954.25;;;15.01;96.76
51603;BME280;37954;51.980;5.850;2023-08-08T05:03:43;100954.31;;;15.06;96.70
51603;BME280;37954;51.980;5.850;2023-08-08T05:07:55;100951.03;;;15.04;96.69
51603;BME280;37954;51.980;5.850;2023-08-08T05:12:07;100957.34;;;15.09;96.58
51603;BME280;37954;51.980;5.850;2023-08-08T05:16:19;100950.69;;;15.17;96.75
51603;BME280;37954;51.980;5.850;2023-08-08T05:20:30;100944.44;;;15.33;97.03
51603;BME280;37954;51.980;5.850;2023-08-08T05:24:42;100952.41;;;15.61;97.30
51603;BME280;37954;51.980;5.850;2023-08-08T05:28:54;100957.31;;;16.08;97.26
51603;BME280;37954;51.980;5.850;2023-08-08T05:33:05;100933.13;;;16.01;96.22
51603;BME280;37954;51.980;5.850;2023-08-08T05:37:17;100949.75;;;16.10;95.48
51603;BME280;37954;51.980;5.850;2023-08-08T05:41:29;100945.66;;;16.08;95.40
51603;BME280;37954;51.980;5.850;2023-08-08T05:45:41;100942.38;;;16.06;95.01
51603;BME280;37954;51.980;5.850;2023-08-08T05:49:52;100956.13;;;16.53;95.35
51603;BME280;37954;51.980;5.850;2023-08-08T05:54:04;100953.19;;;16.86;94.46
51603;BME280;37954;51.980;5.850;2023-08-08T05:58:16;100964.91;;;16.92;93.48
51603;BME280;37954;51.980;5.850;2023-08-08T06:02:28;100967.69;;;16.97;92.74
51603;BME280;37954;51.980;5.850;2023-08-08T06:06:39;100964.22;;;17.07;91.81
51603;BME280;37954;51.980;5.850;2023-08-08T06:10:51;100974.41;;;17.26;91.19
51603;BME280;37954;51.980;5.850;2023-08-08T06:15:03;100975.25;;;17.84;90.83
51603;BME280;37954;51.980;5.850;2023-08-08T06:19:18;100974.69;;;18.85;88.23
51603;BME280;37954;51.980;5.850;2023-08-08T06:23:29;100984.72;;;20.64;86.16
51603;BME280;37954;51.980;5.850;2023-08-08T06:27:41;100975.00;;;20.82;79.97
51603;BME280;37954;51.980;5.850;2023-08-08T06:31:53;100983.56;;;20.26;76.96
51603;BME280;37954;51.980;5.850;2023-08-08T06:36:05;101000.19;;;20.40;75.95
51603;BME280;37954;51.980;5.850;2023-08-08T06:40:17;100986.91;;;20.18;75.36
51603;BME280;37954;51.980;5.850;2023-08-08T06:44:28;100999.94;;;21.38;72.28
51603;BME280;37954;51.980;5.850;2023-08-08T06:48:42;101003.97;;;22.55;70.13
51603;BME280;37954;51.980;5.850;2023-08-08T06:52:54;101002.34;;;23.38;66.20
51603;BME280;37954;51.980;5.850;2023-08-08T06:57:06;101000.03;;;22.99;64.07
51603;BME280;37954;51.980;5.850;2023-08-08T07:01:18;100994.75;;;22.51;63.53
51603;BME280;37954;51.980;5.850;2023-08-08T07:09:42;101002.44;;;23.19;61.12
51603;BME280;37954;51.980;5.850;2023-08-08T07:13:54;100999.75;;;23.74;59.59
51603;BME280;37954;51.980;5.850;2023-08-08T07:18:06;100985.63;;;24.57;55.54
51603;BME280;37954;51.980;5.850;2023-08-08T07:22:17;100996.97;;;24.87;52.96
51603;BME280;37954;51.980;5.850;2023-08-08T07:26:29;100988.78;;;25.49;50.48
51603;BME280;37954;51.980;5.850;2023-08-08T07:30:41;100983.44;;;25.83;48.06
51603;BME280;37954;51.980;5.850;2023-08-08T07:34:52;100987.69;;;26.07;45.92
51603;BME280;37954;51.980;5.850;2023-08-08T07:39:04;100974.69;;;25.11;46.63
51603;BME280;37954;51.980;5.850;2023-08-08T07:43:16;100976.69;;;24.02;48.19
51603;BME280;37954;51.980;5.850;2023-08-08T07:47:28;100973.97;;;24.38;48.83
51603;BME280;37954;51.980;5.850;2023-08-08T07:51:40;100970.41;;;24.38;47.30
51603;BME280;37954;51.980;5.850;2023-08-08T07:55:52;100976.94;;;24.86;46.66
51603;BME280;37954;51.980;5.850;2023-08-08T08:00:05;100984.38;;;25.08;46.42
51603;BME280;37954;51.980;5.850;2023-08-08T08:04:23;100971.13;;;24.66;45.55
51603;BME280;37954;51.980;5.850;2023-08-08T08:08:35;100968.13;;;24.98;45.33
51603;BME280;37954;51.980;5.850;2023-08-08T08:12:47;100972.47;;;25.21;44.65
51603;BME280;37954;51.980;5.850;2023-08-08T08:16:58;100966.19;;;24.76;44.68
51603;BME280;37954;51.980;5.850;2023-08-08T08:21:10;100970.94;;;25.07;44.89
51603;BME280;37954;51.980;5.850;2023-08-08T08:25:24;100962.44;;;25.56;43.94
51603;BME280;37954;51.980;5.850;2023-08-08T08:29:36;100970.00;;;25.51;42.72
51603;BME280;37954;51.980;5.850;2023-08-08T08:33:48;100960.75;;;25.86;42.78
51603;BME280;37954;51.980;5.850;2023-08-08T08:37:59;100958.22;;;26.07;42.29
51603;BME280;37954;51.980;5.850;2023-08-08T08:42:13;100960.00;;;25.55;42.12
51603;BME280;37954;51.980;5.850;2023-08-08T08:46:28;100970.81;;;25.51;42.15
51603;BME280;37954;51.980;5.850;2023-08-08T08:50:41;100966.59;;;25.14;42.21
51603;BME280;37954;51.980;5.850;2023-08-08T08:54:54;100977.31;;;24.93;42.98
51603;BME280;37954;51.980;5.850;2023-08-08T08:59:06;100963.81;;;24.39;42.84
51603;BME280;37954;51.980;5.850;2023-08-08T09:03:19;100952.06;;;24.47;44.39
51603;BME280;37954;51.980;5.850;2023-08-08T09:07:32;100959.13;;;24.39;44.18
51603;BME280;37954;51.980;5.850;2023-08-08T09:11:52;100963.53;;;25.16;43.01
51603;BME280;37954;51.980;5.850;2023-08-08T09:16:07;100961.44;;;24.90;42.20
51603;BME280;37954;51.980;5.850;2023-08-08T09:20:20;100974.38;;;24.68;42.63
51603;BME280;37954;51.980;5.850;2023-08-08T09:24:32;100977.81;;;24.95;42.29
51603;BME280;37954;51.980;5.850;2023-08-08T09:28:43;100971.56;;;25.04;42.15
51603;BME280;37954;51.980;5.850;2023-08-08T09:32:58;100969.19;;;24.66;40.67
51603;BME280;37954;51.980;5.850;2023-08-08T09:37:10;100971.06;;;24.07;41.14
51603;BME280;37954;51.980;5.850;2023-08-08T09:41:22;100968.66;;;23.51;42.31
51603;BME280;37954;51.980;5.850;2023-08-08T09:45:38;100974.44;;;24.04;43.13
51603;BME280;37954;51.980;5.850;2023-08-08T09:49:50;100976.69;;;24.74;41.61
51603;BME280;37954;51.980;5.850;2023-08-08T09:54:03;100984.50;;;25.34;41.51
51603;BME280;37954;51.980;5.850;2023-08-08T09:58:16;100961.06;;;25.76;40.28
51603;BME280;37954;51.980;5.850;2023-08-08T10:02:29;100966.81;;;26.14;39.74
51603;BME280;37954;51.980;5.850;2023-08-08T10:06:41;100966.19;;;26.26;39.60
51603;BME280;37954;51.980;5.850;2023-08-08T10:10:53;100971.03;;;26.12;39.74
51603;BME280;37954;51.980;5.850;2023-08-08T10:15:08;100973.53;;;25.74;39.01
51603;BME280;37954;51.980;5.850;2023-08-08T10:19:22;100974.19;;;25.09;39.81
51603;BME280;37954;51.980;5.850;2023-08-08T10:23:37;100979.63;;;25.31;40.20
51603;BME280;37954;51.980;5.850;2023-08-08T10:27:49;100970.66;;;25.48;39.21
51603;BME280;37954;51.980;5.850;2023-08-08T10:32:05;100987.06;;;26.10;39.18
51603;BME280;37954;51.980;5.850;2023-08-08T10:36:17;100989.44;;;25.85;39.35
51603;BME280;37954;51.980;5.850;2023-08-08T10:40:32;100975.63;;;26.42;39.15
51603;BME280;37954;51.980;5.850;2023-08-08T10:44:55;100994.28;;;27.44;38.18
51603;BME280;37954;51.980;5.850;2023-08-08T10:49:07;100992.44;;;26.92;37.80
51603;BME280;37954;51.980;5.850;2023-08-08T10:53:22;100988.53;;;26.85;38.14
51603;BME280;37954;51.980;5.850;2023-08-08T10:57:34;100985.63;;;26.90;37.10
51603;BME280;37954;51.980;5.850;2023-08-08T11:01:47;100988.72;;;26.71;36.77
51603;BME280;37954;51.980;5.850;2023-08-08T11:06:01;100983.22;;;26.37;37.62
51603;BME280;37954;51.980;5.850;2023-08-08T11:10:14;100981.13;;;26.59;37.60
51603;BME280;37954;51.980;5.850;2023-08-08T11:14:26;100990.84;;;26.57;37.28
51603;BME280;37954;51.980;5.850;2023-08-08T11:18:38;100979.00;;;26.56;37.75
51603;BME280;37954;51.980;5.850;2023-08-08T11:22:54;100972.84;;;26.51;37.58
51603;BME280;37954;51.980;5.850;2023-08-08T11:27:06;100975.59;;;25.68;37.96
51603;BME280;37954;51.980;5.850;2023-08-08T11:31:21;100970.97;;;25.46;38.08
51603;BME280;37954;51.980;5.850;2023-08-08T11:35:34;100994.28;;;25.18;38.62
51603;BME280;37954;51.980;5.850;2023-08-08T11:39:46;100976.50;;;24.71;39.70
51603;BME280;37954;51.980;5.850;2023-08-08T11:43:58;100957.81;;;24.59;40.79
51603;BME280;37954;51.980;5.850;2023-08-08T11:48:10;100960.63;;;25.52;41.38
51603;BME280;37954;51.980;5.850;2023-08-08T11:52:22;100953.69;;;26.11;38.68
51603;BME280;37954;51.980;5.850;2023-08-08T11:56:35;100952.72;;;26.24;37.80
51603;BME280;37954;51.980;5.850;2023-08-08T12:00:47;100946.91;;;26.26;38.14
51603;BME280;37954;51.980;5.850;2023-08-08T12:05:07;100954.72;;;26.41;38.46
51603;BME280;37954;51.980;5.850;2023-08-08T12:09:18;100956.66;;;26.32;38.00
51603;BME280;37954;51.980;5.850;2023-08-08T12:13:30;100962.16;;;26.41;38.88
51603;BME280;37954;51.980;5.850;2023-08-08T12:17:43;100959.56;;;26.44;39.07
51603;BME280;37954;51.980;5.850;2023-08-08T12:21:55;100958.44;;;26.62;38.01
51603;BME280;37954;51.980;5.850;2023-08-08T12:26:07;100968.91;;;26.17;37.87
51603;BME280;37954;51.980;5.850;2023-08-08T12:30:19;100955.00;;;25.57;38.46
51603;BME280;37954;51.980;5.850;2023-08-08T12:34:31;100944.91;;;25.13;39.32
51603;BME280;37954;51.980;5.850;2023-08-08T12:38:44;100944.75;;;25.09;40.04
51603;BME280;37954;51.980;5.850;2023-08-08T12:42:57;100949.56;;;25.04;40.34
51603;BME280;37954;51.980;5.850;2023-08-08T12:47:09;100954.63;;;25.10;40.09
51603;BME280;37954;51.980;5.850;2023-08-08T12:51:22;100945.38;;;24.84;40.75
51603;BME280;37954;51.980;5.850;2023-08-08T12:55:34;100947.50;;;24.87;41.45
51603;BME280;37954;51.980;5.850;2023-08-08T12:59:45;100953.00;;;24.87;41.12
51603;BME280;37954;51.980;5.850;2023-08-08T13:03:57;100950.22;;;24.56;40.88
51603;BME280;37954;51.980;5.850;2023-08-08T13:08:29;100952.38;;;24.68;41.80
51603;BME280;37954;51.980;5.850;2023-08-08T13:12:41;100947.63;;;24.37;41.72
51603;BME280;37954;51.980;5.850;2023-08-08T13:16:52;100959.50;;;23.97;41.89
51603;BME280;37954;51.980;5.850;2023-08-08T13:21:04;100963.16;;;23.51;42.04
51603;BME280;37954;51.980;5.850;2023-08-08T13:25:17;100971.47;;;23.18;43.06
51603;BME280;37954;51.980;5.850;2023-08-08T13:29:30;100965.53;;;22.98;43.50
51603;BME280;37954;51.980;5.850;2023-08-08T13:33:42;100962.25;;;22.96;44.12
51603;BME280;37954;51.980;5.850;2023-08-08T13:37:53;100978.72;;;23.09;44.24
51603;BME280;37954;51.980;5.850;2023-08-08T13:42:06;100962.34;;;23.37;45.23
51603;BME280;37954;51.980;5.850;2023-08-08T13:46:18;100962.38;;;23.78;44.69
51603;BME280;37954;51.980;5.850;2023-08-08T13:50:30;100965.59;;;23.93;44.66
51603;BME280;37954;51.980;5.850;2023-08-08T13:54:41;100970.31;;;23.66;43.89
51603;BME280;37954;51.980;5.850;2023-08-08T13:58:53;100980.50;;;23.33;44.87
51603;BME280;37954;51.980;5.850;2023-08-08T14:03:05;100977.19;;;23.49;45.30
51603;BME280;37954;51.980;5.850;2023-08-08T14:07:18;100988.09;;;23.54;45.39
51603;BME280;37954;51.980;5.850;2023-08-08T14:11:30;100978.66;;;23.28;45.27
51603;BME280;37954;51.980;5.850;2023-08-08T14:15:41;100989.13;;;23.40;45.73
51603;BME280;37954;51.980;5.850;2023-08-08T14:19:53;100993.19;;;23.29;45.48
51603;BME280;37954;51.980;5.850;2023-08-08T14:24:05;100992.25;;;22.87;45.63
51603;BME280;37954;51.980;5.850;2023-08-08T14:28:18;100994.19;;;22.86;46.11
51603;BME280;37954;51.980;5.850;2023-08-08T14:32:30;100992.88;;;22.84;46.73
51603;BME280;37954;51.980;5.850;2023-08-08T14:36:42;100994.19;;;22.86;46.51
51603;BME280;37954;51.980;5.850;2023-08-08T14:40:54;100987.66;;;23.01;45.71
51603;BME280;37954;51.980;5.850;2023-08-08T14:45:06;100993.00;;;22.92;45.60
51603;BME280;37954;51.980;5.850;2023-08-08T14:49:18;100988.56;;;22.97;45.26
51603;BME280;37954;51.980;5.850;2023-08-08T14:53:29;100982.25;;;22.96;45.07
51603;BME280;37954;51.980;5.850;2023-08-08T14:57:41;100976.19;;;22.99;45.32
51603;BME280;37954;51.980;5.850;2023-08-08T15:01:53;100993.03;;;23.06;45.70
51603;BME280;37954;51.980;5.850;2023-08-08T15:06:05;100980.56;;;23.14;45.53
51603;BME280;37954;51.980;5.850;2023-08-08T15:10:17;100991.13;;;23.20;45.11
51603;BME280;37954;51.980;5.850;2023-08-08T15:14:31;100983.41;;;23.22;45.01
51603;BME280;37954;51.980;5.850;2023-08-08T15:18:42;101002.44;;;23.33;45.31
51603;BME280;37954;51.980;5.850;2023-08-08T15:22:54;101000.09;;;23.26;45.19
51603;BME280;37954;51.980;5.850;2023-08-08T15:27:06;101005.09;;;23.05;44.90
51603;BME280;37954;51.980;5.850;2023-08-08T15:31:18;101002.84;;;22.94;45.27
51603;BME280;37954;51.980;5.850;2023-08-08T15:35:29;101006.31;;;22.99;45.19
51603;BME280;37954;51.980;5.850;2023-08-08T15:39:41;101011.81;;;22.99;45.61
51603;BME280;37954;51.980;5.850;2023-08-08T15:43:53;101004.59;;;23.03;45.66
51603;BME280;37954;51.980;5.850;2023-08-08T15:48:05;100989.28;;;23.02;45.89
51603;BME280;37954;51.980;5.850;2023-08-08T15:52:17;101006.41;;;22.94;46.55
51603;BME280;37954;51.980;5.850;2023-08-08T15:56:28;100976.50;;;22.60;46.25
51603;BME280;37954;51.980;5.850;2023-08-08T16:00:40;100984.97;;;22.45;46.41
51603;BME280;37954;51.980;5.850;2023-08-08T16:04:52;100971.56;;;22.25;47.01
51603;BME280;37954;51.980;5.850;2023-08-08T16:09:04;100991.09;;;22.18;47.27
51603;BME280;37954;51.980;5.850;2023-08-08T16:13:16;100968.06;;;22.00;47.83
51603;BME280;37954;51.980;5.850;2023-08-08T16:17:28;100989.53;;;22.12;48.19
51603;BME280;37954;51.980;5.850;2023-08-08T16:21:40;100985.00;;;22.02;48.54
51603;BME280;37954;51.980;5.850;2023-08-08T16:25:52;100981.75;;;21.76;48.33
51603;BME280;37954;51.980;5.850;2023-08-08T16:30:04;100980.19;;;21.46;49.00
51603;BME280;37954;51.980;5.850;2023-08-08T16:34:16;100982.69;;;21.43;49.84
51603;BME280;37954;51.980;5.850;2023-08-08T16:38:28;100970.69;;;21.39;49.65
51603;BME280;37954;51.980;5.850;2023-08-08T16:42:40;100978.84;;;21.44;49.16
51603;BME280;37954;51.980;5.850;2023-08-08T16:46:51;100971.03;;;21.32;48.97
51603;BME280;37954;51.980;5.850;2023-08-08T16:51:03;100969.47;;;21.26;49.77
51603;BME280;37954;51.980;5.850;2023-08-08T16:55:15;100976.03;;;21.25;49.78
51603;BME280;37954;51.980;5.850;2023-08-08T16:59:27;100962.13;;;21.22;50.29
51603;BME280;37954;51.980;5.850;2023-08-08T17:03:39;100987.41;;;21.32;50.75
51603;BME280;37954;51.980;5.850;2023-08-08T17:07:51;100980.41;;;21.26;51.28
51603;BME280;37954;51.980;5.850;2023-08-08T17:12:03;100982.06;;;21.17;51.59
51603;BME280;37954;51.980;5.850;2023-08-08T17:16:15;100974.59;;;20.99;51.27
51603;BME280;37954;51.980;5.850;2023-08-08T17:20:28;100989.03;;;21.04;51.32
51603;BME280;37954;51.980;5.850;2023-08-08T17:24:40;100976.72;;;20.78;51.71
51603;BME280;37954;51.980;5.850;2023-08-08T17:28:52;100960.47;;;20.58;52.78
51603;BME280;37954;51.980;5.850;2023-08-08T17:33:04;100971.97;;;20.55;53.86
51603;BME280;37954;51.980;5.850;2023-08-08T17:37:16;100949.44;;;20.39;55.65
51603;BME280;37954;51.980;5.850;2023-08-08T17:41:27;100949.78;;;20.22;56.82
51603;BME280;37954;51.980;5.850;2023-08-08T17:45:39;100961.06;;;20.05;58.05
51603;BME280;37954;51.980;5.850;2023-08-08T17:49:51;100978.00;;;19.97;58.88
51603;BME280;37954;51.980;5.850;2023-08-08T17:54:03;100953.31;;;19.73;59.24
51603;BME280;37954;51.980;5.850;2023-08-08T17:58:18;100982.16;;;19.85;59.50
51603;BME280;37954;51.980;5.850;2023-08-08T18:02:36;100977.28;;;19.71;60.11
51603;BME280;37954;51.980;5.850;2023-08-08T18:06:48;100990.66;;;19.63;61.58
51603;BME280;37954;51.980;5.850;2023-08-08T18:11:00;100964.03;;;19.29;62.55
51603;BME280;37954;51.980;5.850;2023-08-08T18:15:12;100983.34;;;19.33;63.85
51603;BME280;37954;51.980;5.850;2023-08-08T18:19:24;100983.63;;;19.26;64.65
51603;BME280;37954;51.980;5.850;2023-08-08T18:23:35;100956.69;;;19.09;65.49
51603;BME280;37954;51.980;5.850;2023-08-08T18:27:48;100971.94;;;19.05;66.20
51603;BME280;37954;51.980;5.850;2023-08-08T18:32:00;100954.25;;;18.93;67.13
51603;BME280;37954;51.980;5.850;2023-08-08T18:36:13;100968.44;;;18.85;67.84
51603;BME280;37954;51.980;5.850;2023-08-08T18:40:25;100974.97;;;18.68;68.78
51603;BME280;37954;51.980;5.850;2023-08-08T18:44:37;100967.31;;;18.50;69.55
51603;BME280;37954;51.980;5.850;2023-08-08T18:48:48;100919.09;;;18.25;69.67
51603;BME280;37954;51.980;5.850;2023-08-08T18:53:00;100924.78;;;18.19;70.34
51603;BME280;37954;51.980;5.850;2023-08-08T18:57:12;100949.31;;;18.29;70.65
51603;BME280;37954;51.980;5.850;2023-08-08T19:01:24;100971.34;;;18.32;71.22
51603;BME280;37954;51.980;5.850;2023-08-08T19:05:36;100968.59;;;18.17;72.02
51603;BME280;37954;51.980;5.850;2023-08-08T19:09:47;100977.25;;;18.09;72.12
51603;BME280;37954;51.980;5.850;2023-08-08T19:13:59;100959.56;;;17.96;73.41
51603;BME280;37954;51.980;5.850;2023-08-08T19:18:11;100963.91;;;17.97;73.22
51603;BME280;37954;51.980;5.850;2023-08-08T19:22:23;100955.44;;;17.89;73.87
51603;BME280;37954;51.980;5.850;2023-08-08T19:26:35;100956.53;;;17.88;73.71
51603;BME280;37954;51.980;5.850;2023-08-08T19:30:47;100951.28;;;17.66;73.91
51603;BME280;37954;51.980;5.850;2023-08-08T19:34:59;100965.97;;;17.65;74.05
51603;BME280;37954;51.980;5.850;2023-08-08T19:39:11;100967.19;;;17.47;74.42
51603;BME280;37954;51.980;5.850;2023-08-08T19:43:22;100946.47;;;17.31;74.78
51603;BME280;37954;51.980;5.850;2023-08-08T19:47:34;100979.63;;;17.38;75.13
51603;BME280;37954;51.980;5.850;2023-08-08T19:51:46;100944.13;;;17.08;75.56
51603;BME280;37954;51.980;5.850;2023-08-08T19:55:58;100965.38;;;17.21;75.96
51603;BME280;37954;51.980;5.850;2023-08-08T20:00:14;100960.56;;;17.28;76.01
51603;BME280;37954;51.980;5.850;2023-08-08T20:04:45;100963.84;;;17.35;76.32
51603;BME280;37954;51.980;5.850;2023-08-08T20:08:57;100956.22;;;17.27;76.21
51603;BME280;37954;51.980;5.850;2023-08-08T20:13:09;100954.06;;;17.29;76.54
51603;BME280;37954;51.980;5.850;2023-08-08T20:17:22;100947.81;;;17.33;76.71
51603;BME280;37954;51.980;5.850;2023-08-08T20:21:33;100926.56;;;17.20;77.10
51603;BME280;37954;51.980;5.850;2023-08-08T20:25:45;100917.03;;;17.18;77.33
51603;BME280;37954;51.980;5.850;2023-08-08T20:29:57;100903.72;;;17.16;77.53
51603;BME280;37954;51.980;5.850;2023-08-08T20:34:09;100911.66;;;17.23;77.82
51603;BME280;37954;51.980;5.850;2023-08-08T20:38:21;100911.97;;;17.31;78.09
51603;BME280;37954;51.980;5.850;2023-08-08T20:42:32;100923.63;;;17.27;78.00
51603;BME280;37954;51.980;5.850;2023-08-08T20:46:44;100928.75;;;17.23;78.61
51603;BME280;37954;51.980;5.850;2023-08-08T20:50:56;100945.34;;;17.27;78.22
51603;BME280;37954;51.980;5.850;2023-08-08T20:55:07;100941.72;;;17.16;78.72
51603;BME280;37954;51.980;5.850;2023-08-08T20:59:19;100941.50;;;17.23;79.13
51603;BME280;37954;51.980;5.850;2023-08-08T21:03:31;100920.56;;;17.13;79.65
51603;BME280;37954;51.980;5.850;2023-08-08T21:07:43;100919.00;;;17.27;79.56
51603;BME280;37954;51.980;5.850;2023-08-08T21:11:55;100931.69;;;17.17;79.93
51603;BME280;37954;51.980;5.850;2023-08-08T21:16:07;100939.00;;;17.16;80.01
51603;BME280;37954;51.980;5.850;2023-08-08T21:20:19;100901.56;;;17.13;80.50
51603;BME280;37954;51.980;5.850;2023-08-08T21:24:31;100890.97;;;17.12;80.91
51603;BME280;37954;51.980;5.850;2023-08-08T21:28:44;100906.16;;;17.13;80.89
51603;BME280;37954;51.980;5.850;2023-08-08T21:32:55;100888.47;;;17.05;81.17
51603;BME280;37954;51.980;5.850;2023-08-08T21:37:07;100883.91;;;17.11;81.66
51603;BME280;37954;51.980;5.850;2023-08-08T21:41:19;100888.81;;;17.19;81.77
51603;BME280;37954;51.980;5.850;2023-08-08T21:45:31;100885.78;;;17.10;82.17
51603;BME280;37954;51.980;5.850;2023-08-08T21:49:43;100905.09;;;17.14;82.40
51603;BME280;37954;51.980;5.850;2023-08-08T21:53:55;100881.09;;;17.00;82.41
51603;BME280;37954;51.980;5.850;2023-08-08T21:58:06;100885.97;;;16.93;83.05
51603;BME280;37954;51.980;5.850;2023-08-08T22:02:18;100890.88;;;17.01;83.38
51603;BME280;37954;51.980;5.850;2023-08-08T22:06:30;100877.00;;;16.93;83.47